Flagstaff, Arizona
Current Conditions -  °F | °C
As of 10:57 AM on Thursday 29 Jan 2015 (Local Time) from KFLG Reporting Station
Scattered Clouds Scattered Clouds  
Wind Chill: 39°   Ceiling: Unl
Heat Index: 44°   Visibility: 10mi
Dew Point: 30°   Wind: 10mph
Humidity: 58%   Direction: 90°E
Pressure: 30.32"   Gusts: NA
Location:  35.2°N, 111.65°W
Report Text: KFLG 291757Z 09009KT 10SM SCT110 07/M01 A3032 RMK AO2 SLP232 T00671011 10067 21006 51010
Loading
Personal Weather Stations






























Interactive Weather Map New forecast layout! Learn more

10-Day Weather Forecast

Advertisements
Track Severe Weather on mobile